createdAt,value
2022-10-24T00:01:52.105Z,2.08
2022-10-24T00:04:41.310Z,2.13
2022-10-24T00:07:27.765Z,2.20
2022-10-24T00:10:14.835Z,1.70
2022-10-24T00:13:00.945Z,2.17
2022-10-24T00:15:49.263Z,2.40
2022-10-24T00:18:35.541Z,1.90
2022-10-24T00:21:21.797Z,2.07
2022-10-24T00:24:08.905Z,2.28
2022-10-24T00:29:40.702Z,2.00
2022-10-24T00:32:26.779Z,2.20
2022-10-24T00:35:12.808Z,1.88
2022-10-24T00:37:58.829Z,2.10
2022-10-24T00:40:45.185Z,2.15
2022-10-24T00:43:31.558Z,2.88
2022-10-24T00:46:18.858Z,1.73
2022-10-24T00:49:05.232Z,2.15
2022-10-24T00:51:55.692Z,1.60
2022-10-24T00:54:42.871Z,1.85
2022-10-24T00:57:35.778Z,1.92
2022-10-24T01:00:25.825Z,1.73
2022-10-24T01:03:12.796Z,1.70
2022-10-24T01:06:23.610Z,1.85
2022-10-24T01:09:26.221Z,1.48
2022-10-24T01:12:38.397Z,1.92
2022-10-24T01:15:49.194Z,2.00
2022-10-24T01:18:44.684Z,2.05
2022-10-24T01:21:57.981Z,1.60
2022-10-24T01:25:06.057Z,1.73
2022-10-24T01:28:11.854Z,2.00
2022-10-24T01:31:07.816Z,1.85
2022-10-24T01:34:01.862Z,2.05
2022-10-24T01:36:56.514Z,2.53
2022-10-24T01:39:51.362Z,2.17
2022-10-24T01:42:40.436Z,2.53
2022-10-24T01:45:32.772Z,2.25
2022-10-24T01:48:21.870Z,1.83
2022-10-24T01:51:09.365Z,2.15
2022-10-24T01:53:56.610Z,2.33
2022-10-24T01:56:42.549Z,1.95
2022-10-24T01:59:28.924Z,2.00
2022-10-24T02:02:27.163Z,1.58
2022-10-24T02:05:24.022Z,2.08
2022-10-24T02:08:14.344Z,2.10
2022-10-24T02:11:04.365Z,1.60
2022-10-24T02:14:09.504Z,1.50
2022-10-24T02:16:55.630Z,1.60
2022-10-24T02:19:42.897Z,1.83
2022-10-24T02:22:33.608Z,1.98
2022-10-24T02:28:40.380Z,1.60
2022-10-24T02:31:36.106Z,1.65
2022-10-24T02:34:23.890Z,1.40
2022-10-24T02:37:11.973Z,1.35
2022-10-24T02:39:59.478Z,1.27
2022-10-24T02:42:47.406Z,1.20
2022-10-24T02:45:36.226Z,1.48
2022-10-24T02:48:32.772Z,1.50
2022-10-24T02:51:20.430Z,1.42
2022-10-24T02:54:06.752Z,1.35
2022-10-24T02:56:59.307Z,1.58
2022-10-24T02:59:45.314Z,1.50
2022-10-24T03:02:31.450Z,1.60
2022-10-24T03:05:17.608Z,1.45
2022-10-24T03:08:04.177Z,1.60
2022-10-24T03:13:36.498Z,1.40
2022-10-24T03:16:22.228Z,1.63
2022-10-24T03:19:08.204Z,1.70
2022-10-24T03:21:54.130Z,1.43
2022-10-24T03:24:44.185Z,1.63
2022-10-24T03:27:40.528Z,1.85
2022-10-24T03:30:26.457Z,1.33
2022-10-24T03:33:12.323Z,1.50
2022-10-24T03:35:58.426Z,1.63
2022-10-24T03:38:44.301Z,1.47
2022-10-24T03:41:30.856Z,1.30
2022-10-24T03:44:16.622Z,1.83
2022-10-24T03:47:02.628Z,1.42
2022-10-24T03:49:48.882Z,1.15
2022-10-24T03:52:34.939Z,1.70
2022-10-24T03:55:20.949Z,1.63
2022-10-24T03:58:06.994Z,1.25
2022-10-24T04:00:53.205Z,1.50
2022-10-24T04:03:39.422Z,1.55
2022-10-24T04:06:25.952Z,1.70
2022-10-24T04:09:12.250Z,1.53
2022-10-24T04:11:58.264Z,1.55
2022-10-24T04:14:44.211Z,1.10
2022-10-24T04:17:30.411Z,1.40
2022-10-24T04:20:20.001Z,1.88
2022-10-24T04:23:06.317Z,1.20
2022-10-24T04:25:52.401Z,1.45
2022-10-24T04:28:38.653Z,1.65
2022-10-24T04:31:24.919Z,1.35
2022-10-24T04:34:11.104Z,1.58
2022-10-24T04:36:57.210Z,1.55
2022-10-24T04:39:43.185Z,1.65
2022-10-24T04:42:30.093Z,1.85
2022-10-24T04:45:16.368Z,1.58
2022-10-24T04:48:02.225Z,1.33
2022-10-24T04:50:48.597Z,1.55
2022-10-24T04:53:34.908Z,1.60
2022-10-24T04:56:20.963Z,1.58
2022-10-24T04:59:07.265Z,1.80
2022-10-24T05:01:54.933Z,1.97
2022-10-24T05:04:40.994Z,2.50
2022-10-24T05:07:26.930Z,2.93
2022-10-24T05:10:14.245Z,1.60
2022-10-24T05:13:00.470Z,2.03
2022-10-24T05:15:46.453Z,2.23
2022-10-24T05:18:32.850Z,2.80
2022-10-24T05:21:18.622Z,1.80
2022-10-24T05:24:04.762Z,2.00
2022-10-24T05:26:50.579Z,2.60
2022-10-24T05:29:37.218Z,1.90
2022-10-24T05:32:24.454Z,2.10
2022-10-24T05:35:10.923Z,2.03
2022-10-24T05:37:57.298Z,2.25
2022-10-24T05:40:43.353Z,2.60
2022-10-24T05:43:29.282Z,2.60
2022-10-24T05:46:15.243Z,2.40
2022-10-24T05:49:01.133Z,2.00
2022-10-24T05:51:47.254Z,2.20
2022-10-24T05:54:42.718Z,2.33
2022-10-24T05:57:39.829Z,2.17
2022-10-24T06:00:25.829Z,1.60
2022-10-24T06:03:12.109Z,2.00
2022-10-24T06:05:58.101Z,2.20
2022-10-24T06:08:44.098Z,2.10
2022-10-24T06:11:30.041Z,2.20
2022-10-24T06:14:16.914Z,1.60
2022-10-24T06:17:02.811Z,2.28
2022-10-24T06:19:50.872Z,1.73
2022-10-24T06:22:37.283Z,2.03
2022-10-24T06:25:23.211Z,1.93
2022-10-24T06:28:09.641Z,2.30
2022-10-24T06:30:55.565Z,2.03
2022-10-24T06:33:42.066Z,1.65
2022-10-24T06:36:30.694Z,1.73
2022-10-24T06:39:17.802Z,1.70
2022-10-24T06:42:03.998Z,1.67
2022-10-24T06:44:51.276Z,2.03
2022-10-24T06:47:37.538Z,1.70
2022-10-24T06:50:23.709Z,2.05
2022-10-24T06:53:10.343Z,1.80
2022-10-24T06:56:00.504Z,1.48
2022-10-24T06:58:46.674Z,1.98
2022-10-24T07:01:33.824Z,1.38
2022-10-24T07:04:20.397Z,1.80
2022-10-24T07:07:07.005Z,2.38
2022-10-24T07:09:55.197Z,1.75
2022-10-24T07:12:43.412Z,2.20
2022-10-24T07:15:29.902Z,2.00
2022-10-24T07:18:16.277Z,2.03
2022-10-24T07:21:08.550Z,2.15
2022-10-24T07:23:56.227Z,1.65
2022-10-24T07:26:42.189Z,2.60
2022-10-24T07:29:28.142Z,2.10
2022-10-24T07:32:14.622Z,1.92
2022-10-24T07:35:00.517Z,1.77
2022-10-24T07:37:46.805Z,2.13
2022-10-24T07:40:33.145Z,2.00
2022-10-24T07:43:19.252Z,1.60
2022-10-24T07:46:10.540Z,2.33
2022-10-24T07:48:56.441Z,1.90
2022-10-24T07:51:43.159Z,1.80
2022-10-24T07:54:31.781Z,1.98
2022-10-24T07:57:21.139Z,2.45
2022-10-24T08:00:07.745Z,1.95
2022-10-24T08:02:58.897Z,1.80
2022-10-24T08:05:45.243Z,1.83
2022-10-24T08:08:36.945Z,1.92
2022-10-24T08:11:26.232Z,2.30
2022-10-24T08:14:12.201Z,2.17
2022-10-24T08:16:58.156Z,2.53
2022-10-24T08:19:44.458Z,2.38
2022-10-24T08:25:16.782Z,2.47
2022-10-24T08:28:05.210Z,2.13
2022-10-24T08:30:57.318Z,2.08
2022-10-24T08:33:43.776Z,2.10
2022-10-24T08:36:32.969Z,2.22
2022-10-24T08:39:20.007Z,2.30
2022-10-24T08:44:53.626Z,2.05
2022-10-24T08:47:48.512Z,2.30
2022-10-24T08:50:36.877Z,2.53
2022-10-24T08:53:26.986Z,2.70
2022-10-24T08:56:13.876Z,2.65
2022-10-24T08:59:01.820Z,2.85
2022-10-24T09:02:13.568Z,3.05
2022-10-24T09:05:04.319Z,2.00
2022-10-24T09:07:56.492Z,2.05
2022-10-24T09:10:50.849Z,1.98
2022-10-24T09:13:38.347Z,2.10
2022-10-24T09:16:25.222Z,2.38
2022-10-24T09:19:23.909Z,2.72
2022-10-24T09:22:11.923Z,2.08
2022-10-24T09:25:07.792Z,2.22
2022-10-24T09:27:54.085Z,2.10
2022-10-24T09:30:40.377Z,2.13
2022-10-24T09:33:35.836Z,1.77
2022-10-24T09:36:25.041Z,1.83
2022-10-24T09:39:30.975Z,2.10
2022-10-24T09:42:23.707Z,2.30
2022-10-24T09:45:39.605Z,2.03
2022-10-24T09:48:32.530Z,2.47
2022-10-24T09:51:42.541Z,2.00
2022-10-24T09:54:32.219Z,2.22
2022-10-24T09:57:18.588Z,2.00
2022-10-24T10:00:05.944Z,2.20
2022-10-24T10:03:03.456Z,2.53
2022-10-24T10:05:52.252Z,2.97
2022-10-24T10:08:38.209Z,1.95
2022-10-24T10:11:35.053Z,1.97
2022-10-24T10:14:26.646Z,2.20
2022-10-24T10:17:24.943Z,2.15
2022-10-24T10:20:38.538Z,2.15
2022-10-24T10:23:33.861Z,2.35
2022-10-24T10:26:23.543Z,2.30
2022-10-24T10:29:23.720Z,2.50
2022-10-24T10:32:22.849Z,2.53
2022-10-24T10:35:22.929Z,2.45
2022-10-24T10:38:34.167Z,2.13
2022-10-24T10:41:45.219Z,1.92
2022-10-24T10:44:49.436Z,2.50
2022-10-24T10:47:38.104Z,2.38
2022-10-24T10:50:31.511Z,2.00
2022-10-24T10:53:36.129Z,2.08
2022-10-24T10:56:31.543Z,2.55
2022-10-24T10:59:34.930Z,2.35
2022-10-24T11:02:54.863Z,2.00
2022-10-24T11:06:08.942Z,1.85
2022-10-24T11:09:09.193Z,2.20
2022-10-24T11:12:07.369Z,2.53
2022-10-24T11:15:08.951Z,2.50
2022-10-24T11:18:04.802Z,2.60
2022-10-24T11:21:07.329Z,2.65
2022-10-24T11:23:59.088Z,2.10
2022-10-24T11:26:53.159Z,2.72
2022-10-24T11:29:56.960Z,2.30
2022-10-24T11:33:03.412Z,2.80
2022-10-24T11:36:12.310Z,1.98
2022-10-24T11:39:27.507Z,2.83
2022-10-24T11:42:23.724Z,2.30
2022-10-24T11:45:16.514Z,2.40
2022-10-24T11:48:21.461Z,2.50
2022-10-24T11:51:23.334Z,2.30
2022-10-24T11:54:32.650Z,2.80
2022-10-24T11:57:26.056Z,3.20
2022-10-24T12:00:25.662Z,2.35
2022-10-24T12:03:36.582Z,2.45
2022-10-24T12:06:38.289Z,2.65
2022-10-24T12:10:03.703Z,2.00
2022-10-24T12:13:35.036Z,2.38
2022-10-24T12:16:57.495Z,2.28
2022-10-24T12:19:45.277Z,1.95
2022-10-24T12:22:37.008Z,2.38
2022-10-24T12:25:35.293Z,2.65
2022-10-24T12:28:25.697Z,2.72
2022-10-24T12:31:15.015Z,2.38
2022-10-24T12:34:16.847Z,2.17
2022-10-24T12:37:30.191Z,7.03
2022-10-24T12:40:47.853Z,2.60
2022-10-24T12:43:35.344Z,2.53
2022-10-24T12:46:24.520Z,2.17
2022-10-24T12:49:10.405Z,2.70
2022-10-24T12:51:57.480Z,2.10
2022-10-24T12:54:45.713Z,2.28
2022-10-24T12:57:37.757Z,1.98
2022-10-24T13:00:31.425Z,2.47
2022-10-24T13:03:33.403Z,1.90
2022-10-24T13:06:31.690Z,1.98
2022-10-24T13:09:35.679Z,2.30
2022-10-24T13:12:51.844Z,2.00
2022-10-24T13:15:50.233Z,2.20
2022-10-24T13:18:54.913Z,2.10
2022-10-24T13:21:46.849Z,2.47
2022-10-24T13:24:38.332Z,2.30
2022-10-24T13:27:31.675Z,2.15
2022-10-24T13:30:27.177Z,2.03
2022-10-24T13:33:31.920Z,2.17
2022-10-24T13:36:28.612Z,2.00
2022-10-24T13:39:23.440Z,2.00
2022-10-24T13:42:21.550Z,1.98
2022-10-24T13:45:30.471Z,1.90
2022-10-24T13:48:23.101Z,1.90
2022-10-24T13:51:15.965Z,1.85
2022-10-24T13:54:09.389Z,2.35
2022-10-24T13:56:58.467Z,2.40
2022-10-24T13:59:55.440Z,2.08
2022-10-24T14:02:42.859Z,2.10
2022-10-24T14:05:39.722Z,1.63
2022-10-24T14:08:31.237Z,1.70
2022-10-24T14:11:23.528Z,1.60
2022-10-24T14:14:37.274Z,1.73
2022-10-24T14:17:29.601Z,1.52
2022-10-24T14:20:33.765Z,1.50
2022-10-24T14:23:29.347Z,1.83
2022-10-24T14:26:20.545Z,1.70
2022-10-24T14:29:21.007Z,2.05
2022-10-24T14:32:13.585Z,1.75
2022-10-24T14:37:52.580Z,1.20
2022-10-24T14:40:38.685Z,1.65
2022-10-24T14:43:28.015Z,1.98
2022-10-24T14:46:13.820Z,1.48
2022-10-24T14:49:38.441Z,1.23
2022-10-24T14:52:37.210Z,1.70
2022-10-24T14:55:24.701Z,1.23
2022-10-24T14:58:25.865Z,1.50
2022-10-24T15:01:19.459Z,1.67
2022-10-24T15:04:05.921Z,1.23
2022-10-24T15:06:56.126Z,1.13
2022-10-24T15:10:13.098Z,1.50
2022-10-24T15:13:01.506Z,1.33
2022-10-24T15:15:57.077Z,1.70
2022-10-24T15:18:43.704Z,1.50
2022-10-24T15:21:37.265Z,1.52
2022-10-24T15:24:26.473Z,1.80
2022-10-24T15:27:13.210Z,1.65
2022-10-24T15:29:59.277Z,2.00
2022-10-24T15:32:45.765Z,1.40
2022-10-24T15:35:37.783Z,1.58
2022-10-24T15:38:23.717Z,1.90
2022-10-24T15:41:10.041Z,1.70
2022-10-24T15:43:57.225Z,1.50
2022-10-24T15:46:44.906Z,2.05
2022-10-24T15:49:31.601Z,1.50
2022-10-24T15:52:18.108Z,1.17
2022-10-24T15:55:04.601Z,1.30
2022-10-24T15:57:52.132Z,1.40
2022-10-24T16:00:39.560Z,1.50
2022-10-24T16:03:25.973Z,1.13
2022-10-24T16:06:12.226Z,1.38
2022-10-24T16:08:58.273Z,1.10
2022-10-24T16:11:44.792Z,1.15
2022-10-24T16:14:31.205Z,0.93
2022-10-24T16:17:17.434Z,0.88
2022-10-24T16:20:03.646Z,0.75
2022-10-24T16:22:50.869Z,0.82
2022-10-24T16:25:37.922Z,0.70
2022-10-24T16:28:25.955Z,1.00
2022-10-24T16:31:18.516Z,0.88
2022-10-24T16:34:04.509Z,0.88
2022-10-24T16:36:54.583Z,0.70
2022-10-24T16:39:42.296Z,0.70
2022-10-24T16:42:28.747Z,0.88
2022-10-24T16:45:15.817Z,0.60
2022-10-24T16:48:01.796Z,0.88
2022-10-24T16:50:47.900Z,0.80
2022-10-24T16:53:34.946Z,1.00
2022-10-24T16:56:20.861Z,0.88
2022-10-24T16:59:09.259Z,0.73
2022-10-24T17:01:58.220Z,0.80
2022-10-24T17:04:44.729Z,0.70
2022-10-24T17:07:30.978Z,0.90
2022-10-24T17:10:20.710Z,0.77
2022-10-24T17:13:10.206Z,0.70
2022-10-24T17:15:56.547Z,1.10
2022-10-24T17:18:45.750Z,0.77
2022-10-24T17:21:37.154Z,1.13
2022-10-24T17:24:25.681Z,0.85
2022-10-24T17:27:13.503Z,1.15
2022-10-24T17:29:59.705Z,0.90
2022-10-24T17:32:46.113Z,1.10
2022-10-24T17:35:36.040Z,0.80
2022-10-24T17:38:40.133Z,0.80
2022-10-24T17:41:29.297Z,0.90
2022-10-24T17:44:18.189Z,0.95
2022-10-24T17:47:06.008Z,0.90
2022-10-24T17:49:52.355Z,1.00
2022-10-24T17:52:40.197Z,0.80
2022-10-24T17:55:44.985Z,0.90
2022-10-24T17:58:33.629Z,0.98
2022-10-24T18:01:20.797Z,1.05
2022-10-24T18:04:07.388Z,0.98
2022-10-24T18:06:53.585Z,0.80
2022-10-24T18:09:40.100Z,0.80
2022-10-24T18:12:26.506Z,0.60
2022-10-24T18:15:15.199Z,0.80
2022-10-24T18:18:01.408Z,0.88
2022-10-24T18:20:47.181Z,0.87
2022-10-24T18:23:34.832Z,0.85
2022-10-24T18:26:23.549Z,0.70
2022-10-24T18:29:09.745Z,0.70
2022-10-24T18:31:55.846Z,0.75
2022-10-24T18:34:42.249Z,0.73
2022-10-24T18:37:28.250Z,0.75
2022-10-24T18:40:14.656Z,0.90
2022-10-24T18:43:05.321Z,1.00
2022-10-24T18:45:52.331Z,0.80
2022-10-24T18:48:38.686Z,1.00
2022-10-24T18:51:51.321Z,0.80
2022-10-24T18:54:39.752Z,0.90
2022-10-24T18:57:31.307Z,1.02
2022-10-24T19:00:30.089Z,0.73
2022-10-24T19:03:25.114Z,0.88
2022-10-24T19:06:27.922Z,0.88
2022-10-24T19:09:19.946Z,0.90
2022-10-24T19:12:07.108Z,0.68
2022-10-24T19:14:54.661Z,1.15
2022-10-24T19:17:41.678Z,1.00
2022-10-24T19:20:27.865Z,1.00
2022-10-24T19:23:15.426Z,0.80
2022-10-24T19:26:01.754Z,1.00
2022-10-24T19:28:47.857Z,0.80
2022-10-24T19:31:33.938Z,1.00
2022-10-24T19:34:20.043Z,0.95
2022-10-24T19:37:05.947Z,1.20
2022-10-24T19:39:52.431Z,1.02
2022-10-24T19:42:38.464Z,0.85
2022-10-24T19:45:25.271Z,1.08
2022-10-24T19:48:14.226Z,0.95
2022-10-24T19:51:05.761Z,1.05
2022-10-24T19:53:52.419Z,1.00
2022-10-24T19:56:38.422Z,1.02
2022-10-24T19:59:27.213Z,1.25
2022-10-24T20:02:13.329Z,0.93
2022-10-24T20:04:59.488Z,1.23
2022-10-24T20:07:45.553Z,0.85
2022-10-24T20:10:31.575Z,1.10
2022-10-24T20:13:17.393Z,1.10
2022-10-24T20:16:05.934Z,1.20
2022-10-24T20:18:51.877Z,1.00
2022-10-24T20:21:37.841Z,0.80
2022-10-24T20:24:23.862Z,0.88
2022-10-24T20:27:10.053Z,1.25
2022-10-24T20:29:55.946Z,0.97
2022-10-24T20:32:41.913Z,0.70
2022-10-24T20:35:28.033Z,0.90
2022-10-24T20:38:14.117Z,0.90
2022-10-24T20:41:03.259Z,0.90
2022-10-24T20:43:52.784Z,1.00
2022-10-24T20:46:39.466Z,1.38
2022-10-24T20:49:26.268Z,1.50
2022-10-24T20:55:07.728Z,1.13
2022-10-24T20:58:00.984Z,1.33
2022-10-24T21:00:46.947Z,1.00
2022-10-24T21:03:33.609Z,1.58
2022-10-24T21:06:19.739Z,1.25
2022-10-24T21:09:07.943Z,1.47
2022-10-24T21:11:54.219Z,1.60
2022-10-24T21:14:40.156Z,1.48
2022-10-24T21:17:26.052Z,1.10
2022-10-24T21:20:11.974Z,1.00
2022-10-24T21:22:58.028Z,1.08
2022-10-24T21:25:43.987Z,1.08
2022-10-24T21:28:30.197Z,1.10
2022-10-24T21:31:19.280Z,0.90
2022-10-24T21:36:57.001Z,1.48
2022-10-24T21:39:42.896Z,0.90
2022-10-24T21:42:33.170Z,1.08
2022-10-24T21:45:19.465Z,0.95
2022-10-24T21:48:05.863Z,1.38
2022-10-24T21:50:51.899Z,1.10
2022-10-24T21:53:45.934Z,1.17
2022-10-24T21:56:36.638Z,1.48
2022-10-24T21:59:23.181Z,0.77
2022-10-24T22:02:09.404Z,0.73
2022-10-24T22:04:55.578Z,0.55
2022-10-24T22:07:43.045Z,1.50
2022-10-24T22:10:30.993Z,1.40
2022-10-24T22:13:17.010Z,1.20
2022-10-24T22:16:04.193Z,1.13
2022-10-24T22:18:50.540Z,1.30
2022-10-24T22:21:41.001Z,1.40
2022-10-24T22:24:26.816Z,2.03
2022-10-24T22:27:12.888Z,1.08
2022-10-24T22:29:58.796Z,1.00
2022-10-24T22:32:45.305Z,0.90
2022-10-24T22:38:17.512Z,0.90
2022-10-24T22:41:04.314Z,1.00
2022-10-24T22:43:50.470Z,0.95
2022-10-24T22:47:07.122Z,1.10
2022-10-24T22:50:05.207Z,0.90
2022-10-24T22:52:51.625Z,1.17
2022-10-24T22:56:04.319Z,1.20
2022-10-24T22:58:50.384Z,1.23
2022-10-24T23:01:51.715Z,1.20
2022-10-24T23:04:46.824Z,1.25
2022-10-24T23:08:04.101Z,1.20
2022-10-24T23:10:50.080Z,1.20
2022-10-24T23:13:36.465Z,1.10
2022-10-24T23:16:51.298Z,1.15
2022-10-24T23:19:43.413Z,1.08
2022-10-24T23:22:31.686Z,1.08
2022-10-24T23:25:18.417Z,1.10
2022-10-24T23:28:25.977Z,1.35
2022-10-24T23:31:12.521Z,1.27
2022-10-24T23:33:58.871Z,1.35
2022-10-24T23:36:45.641Z,1.30
2022-10-24T23:39:35.752Z,1.23
2022-10-24T23:42:21.994Z,1.42
2022-10-24T23:45:15.963Z,1.67
2022-10-24T23:48:22.335Z,1.20
2022-10-24T23:51:31.259Z,1.30
2022-10-24T23:54:24.156Z,1.40
2022-10-24T23:57:19.669Z,1.40
